Strona główna
METAR-TAF:

METAR-TAF

Lotnisko :

Port lotniczy Wadżda-Angads

Wadżda, Maroko

Szerokość geograficzna: 34-47N, Długość geograficzna: 001-56W, wysokość: 468 m

Aktualna obserwacja pogody

Raport powstał 45 minut temu, godzina 17:00 UTC
Wiatr 19 kt od północ
Temperatura 30°C
Wilgotność 38%
Ciśnienie 1008 hPa
Widzialność 10 km lub więcej
Brak chmur poniżej 1500 m i brak chmur cumulonimbus

METAR: GMFO 251700Z 35019KT CAVOK 30/14 Q1008 NOSIG

czas: 18:45 (17:45 UTC)

Prognoza

Raport powstał 45 minut temu, godzina 17:00 UTC
Prognoza ważna od 25 godzina 18 UTC do 26 godzina 24 UTC
Wiatr 16 kt od północ
Widzialność 10 km lub więcej
Brak chmur poniżej 1500 m i brak chmur cumulonimbus
Stopniowe zmiany
od 26 godzina 02 UTC do 26 godzina 04 UTC
Wiatr 2 kt z kierunków zmiennych

TAF: GMFO 251700Z 2518/2624 36016KT CAVOK BECMG 2602/2604 VRB02KT

Obserwacja i prognoza pogody dla ponad 4000 lotnisk (raport METAR i TAF).

Dostępne stacje oznaczono żółtymi i czerwonymi punktami na mapie.

Najedź kursorem aby zobaczyć nazwę stacji.

Kliknij aby zobaczyć obserwacje i prognozy pogody.

Aby zmienić mapę: kliknij na zielony przycisk z czarnym krzyżykiem, aby powiększyć; na zielony przycisk z myślnikiem, aby pomniejszyć; na zielone strzałki, aby przejść do map sąsiednich.


METAR-TAF: